createdAt,value
2022-08-16T00:00:20.177Z,32.03
2022-08-16T00:03:13.716Z,30.27
2022-08-16T00:05:49.276Z,30.08
2022-08-16T00:08:52.420Z,31.70
2022-08-16T00:11:39.188Z,31.38
2022-08-16T00:14:22.215Z,30.17
2022-08-16T00:17:18.880Z,30.27
2022-08-16T00:20:00.210Z,29.35
2022-08-16T00:22:56.217Z,27.50
2022-08-16T00:26:35.717Z,25.80
2022-08-16T00:28:57.209Z,26.40
2022-08-16T00:31:59.064Z,28.13
2022-08-16T00:34:52.983Z,27.25
2022-08-16T00:37:58.303Z,25.98
2022-08-16T00:40:43.953Z,27.13
2022-08-16T00:43:42.442Z,25.05
2022-08-16T00:46:37.224Z,25.70
2022-08-16T00:49:39.658Z,25.95
2022-08-16T00:52:38.239Z,26.30
2022-08-16T00:55:38.016Z,25.88
2022-08-16T00:58:16.392Z,28.45
2022-08-16T01:01:15.254Z,27.23
2022-08-16T01:03:58.246Z,25.98
2022-08-16T01:06:48.590Z,26.00
2022-08-16T01:09:53.221Z,26.88
2022-08-16T01:12:48.431Z,26.33
2022-08-16T01:15:43.169Z,28.45
2022-08-16T01:18:39.984Z,27.40
2022-08-16T01:21:22.788Z,25.10
2022-08-16T01:24:51.688Z,27.05
2022-08-16T01:27:34.474Z,26.52
2022-08-16T01:30:30.249Z,26.45
2022-08-16T01:33:15.395Z,27.75
2022-08-16T01:36:14.232Z,26.58
2022-08-16T01:39:01.247Z,25.48
2022-08-16T01:41:42.097Z,25.63
2022-08-16T01:44:37.591Z,27.48
2022-08-16T01:47:12.325Z,26.73
2022-08-16T01:50:43.472Z,25.63
2022-08-16T01:53:01.256Z,26.52
2022-08-16T01:55:57.244Z,25.02
2022-08-16T01:58:47.978Z,24.05
2022-08-16T02:01:21.403Z,25.42
2022-08-16T02:04:11.321Z,25.15
2022-08-16T02:06:54.266Z,26.17
2022-08-16T02:09:44.289Z,25.70
2022-08-16T02:12:51.930Z,24.95
2022-08-16T02:15:49.300Z,25.10
2022-08-16T02:18:39.259Z,25.80
2022-08-16T02:21:14.365Z,24.73
2022-08-16T02:24:02.291Z,27.33
2022-08-16T02:26:56.444Z,25.40
2022-08-16T02:29:37.277Z,25.85
2022-08-16T02:32:50.679Z,25.67
2022-08-16T02:35:17.396Z,25.20
2022-08-16T02:38:09.277Z,26.13
2022-08-16T02:40:43.365Z,26.30
2022-08-16T02:43:36.284Z,24.77
2022-08-16T02:46:12.357Z,25.45
2022-08-16T02:49:00.285Z,25.27
2022-08-16T02:51:35.692Z,25.52
2022-08-16T02:54:23.938Z,26.50
2022-08-16T02:56:57.359Z,25.88
2022-08-16T02:59:45.304Z,24.42
2022-08-16T03:02:18.873Z,25.83
2022-08-16T03:05:21.279Z,25.17
2022-08-16T03:07:54.410Z,23.98
2022-08-16T03:10:41.288Z,24.88
2022-08-16T03:13:21.440Z,25.42
2022-08-16T03:16:37.634Z,24.92
2022-08-16T03:19:08.292Z,24.83
2022-08-16T03:22:02.330Z,24.48
2022-08-16T03:24:49.303Z,24.63
2022-08-16T03:27:30.571Z,24.15
2022-08-16T03:30:32.300Z,24.38
2022-08-16T03:33:26.306Z,25.75
2022-08-16T03:36:32.673Z,25.13
2022-08-16T03:39:20.371Z,25.58
2022-08-16T03:41:59.606Z,24.58
2022-08-16T03:44:49.735Z,24.45
2022-08-16T03:47:23.422Z,25.20
2022-08-16T03:50:25.711Z,25.40
2022-08-16T03:53:03.094Z,24.75
2022-08-16T03:56:07.397Z,24.75
2022-08-16T03:58:55.317Z,23.92
2022-08-16T04:01:30.464Z,25.02
2022-08-16T04:04:25.019Z,23.08
2022-08-16T04:07:07.181Z,25.75
2022-08-16T04:09:54.334Z,25.23
2022-08-16T04:12:53.110Z,25.95
2022-08-16T04:15:37.333Z,25.73
2022-08-16T04:18:14.402Z,26.77
2022-08-16T04:21:01.330Z,24.33
2022-08-16T04:23:38.921Z,23.90
2022-08-16T04:26:25.352Z,25.70
2022-08-16T04:29:15.138Z,24.80
2022-08-16T04:32:07.338Z,23.63
2022-08-16T04:34:42.513Z,24.17
2022-08-16T04:37:31.351Z,25.85
2022-08-16T04:40:21.954Z,24.52
2022-08-16T04:43:12.346Z,24.58
2022-08-16T04:46:00.544Z,25.75
2022-08-16T04:48:55.375Z,29.00
2022-08-16T04:51:42.352Z,27.02
2022-08-16T04:54:19.476Z,24.70
2022-08-16T04:57:06.340Z,25.25
2022-08-16T04:59:39.460Z,23.42
2022-08-16T05:02:41.843Z,24.80
2022-08-16T05:05:18.921Z,26.17
2022-08-16T05:08:29.312Z,25.73
2022-08-16T05:11:19.377Z,23.75
2022-08-16T05:13:55.540Z,25.13
2022-08-16T05:16:53.361Z,25.50
2022-08-16T05:19:26.512Z,23.08
2022-08-16T05:22:23.392Z,23.33
2022-08-16T05:25:01.474Z,23.13
2022-08-16T05:27:55.389Z,22.75
2022-08-16T05:30:34.619Z,21.98
2022-08-16T05:33:22.371Z,25.20
2022-08-16T05:35:56.505Z,22.25
2022-08-16T05:38:43.384Z,24.42
2022-08-16T05:41:16.882Z,21.67
2022-08-16T05:44:05.378Z,25.05
2022-08-16T05:46:56.475Z,23.88
2022-08-16T05:49:43.389Z,24.60
2022-08-16T05:52:27.823Z,21.25
2022-08-16T05:55:21.400Z,22.83
2022-08-16T05:58:31.498Z,23.88
2022-08-16T06:01:11.415Z,23.30
2022-08-16T06:03:51.419Z,23.48
2022-08-16T06:06:29.006Z,23.05
2022-08-16T06:09:24.406Z,25.30
2022-08-16T06:12:27.363Z,20.95
2022-08-16T06:15:19.406Z,25.13
2022-08-16T06:18:00.599Z,24.08
2022-08-16T06:20:55.374Z,25.67
2022-08-16T06:23:42.421Z,24.40
2022-08-16T06:26:15.493Z,23.95
2022-08-16T06:29:05.397Z,21.63
2022-08-16T06:31:50.447Z,24.73
2022-08-16T06:34:56.872Z,25.70
2022-08-16T06:37:42.984Z,22.45
2022-08-16T06:40:33.329Z,26.63
2022-08-16T06:43:07.578Z,24.85
2022-08-16T06:45:59.413Z,24.10
2022-08-16T06:48:34.028Z,24.73
2022-08-16T06:51:20.439Z,22.63
2022-08-16T06:53:55.514Z,24.70
2022-08-16T06:56:42.454Z,23.48
2022-08-16T06:59:15.517Z,25.40
2022-08-16T07:02:02.471Z,22.75
2022-08-16T07:04:40.379Z,23.27
2022-08-16T07:07:31.099Z,22.40
2022-08-16T07:10:29.469Z,23.65
2022-08-16T07:13:26.624Z,23.10
2022-08-16T07:16:15.542Z,21.58
2022-08-16T07:19:04.450Z,23.30
2022-08-16T07:21:46.598Z,24.73
2022-08-16T07:24:46.455Z,23.38
2022-08-16T07:27:19.514Z,23.20
2022-08-16T07:30:39.976Z,20.23
2022-08-16T07:33:09.456Z,24.60
2022-08-16T07:35:56.478Z,21.05
2022-08-16T07:38:33.733Z,20.50
2022-08-16T07:41:20.460Z,20.95
2022-08-16T07:44:00.452Z,20.55
2022-08-16T07:46:48.463Z,19.00
2022-08-16T07:49:32.465Z,22.60
2022-08-16T07:52:20.352Z,21.00
2022-08-16T07:55:00.483Z,22.55
2022-08-16T07:57:58.050Z,21.33
2022-08-16T08:00:44.510Z,21.05
2022-08-16T08:03:25.473Z,21.80
2022-08-16T08:06:18.574Z,20.98
2022-08-16T08:09:12.477Z,21.48
2022-08-16T08:12:06.492Z,22.02
2022-08-16T08:14:54.479Z,21.83
2022-08-16T08:17:43.291Z,23.63
2022-08-16T08:20:33.751Z,20.95
2022-08-16T08:23:08.404Z,19.95
2022-08-16T08:25:56.486Z,22.50
2022-08-16T08:28:31.934Z,21.50
2022-08-16T08:31:18.501Z,21.05
2022-08-16T08:34:01.515Z,22.17
2022-08-16T08:36:54.301Z,21.45
2022-08-16T08:39:28.675Z,22.67
2022-08-16T08:42:15.519Z,20.88
2022-08-16T08:44:58.576Z,21.10
2022-08-16T08:47:45.509Z,21.83
2022-08-16T08:50:32.194Z,22.75
2022-08-16T08:53:19.519Z,18.92
2022-08-16T08:56:23.074Z,20.17
2022-08-16T08:59:12.887Z,23.95
2022-08-16T09:01:56.490Z,21.60
2022-08-16T09:04:44.507Z,21.90
2022-08-16T09:07:23.813Z,21.58
2022-08-16T09:10:20.810Z,21.38
2022-08-16T09:13:15.535Z,20.65
2022-08-16T09:16:02.634Z,20.15
2022-08-16T09:18:43.564Z,19.50
2022-08-16T09:21:31.494Z,20.85
2022-08-16T09:24:04.588Z,21.13
2022-08-16T09:26:56.529Z,19.88
2022-08-16T09:29:44.900Z,20.45
2022-08-16T09:32:32.549Z,19.58
2022-08-16T09:35:14.543Z,22.20
2022-08-16T09:38:03.531Z,19.83
2022-08-16T09:40:44.046Z,21.92
2022-08-16T09:43:58.000Z,19.48
2022-08-16T09:46:45.172Z,20.75
2022-08-16T09:49:37.240Z,19.27
2022-08-16T09:52:11.618Z,19.08
2022-08-16T09:54:58.551Z,22.08
2022-08-16T09:57:34.591Z,21.80
2022-08-16T10:00:42.406Z,22.20
2022-08-16T10:03:21.586Z,21.70
2022-08-16T10:06:15.553Z,19.52
2022-08-16T10:09:06.792Z,21.75
2022-08-16T10:12:11.045Z,22.15
2022-08-16T10:14:58.558Z,22.70
2022-08-16T10:17:31.677Z,23.38
2022-08-16T10:20:18.737Z,22.67
2022-08-16T10:22:59.767Z,21.35
2022-08-16T10:27:19.482Z,22.42
2022-08-16T10:28:53.558Z,22.20
2022-08-16T10:31:43.483Z,20.58
2022-08-16T10:34:31.349Z,22.13
2022-08-16T10:37:12.582Z,22.13
2022-08-16T10:40:00.599Z,20.35
2022-08-16T10:42:47.698Z,21.17
2022-08-16T10:45:25.506Z,21.10
2022-08-16T10:48:27.379Z,19.98
2022-08-16T10:51:02.746Z,18.88
2022-08-16T10:53:52.570Z,21.67
2022-08-16T10:56:56.050Z,21.40
2022-08-16T10:59:38.933Z,21.30
2022-08-16T11:02:59.478Z,22.02
2022-08-16T11:05:26.664Z,21.30
2022-08-16T11:08:06.887Z,22.38
2022-08-16T11:11:07.595Z,21.25
2022-08-16T11:14:05.968Z,20.23
2022-08-16T11:22:48.548Z,20.13
2022-08-16T11:29:12.193Z,22.98
2022-08-16T11:31:33.608Z,22.75
2022-08-16T11:34:08.709Z,23.08
2022-08-16T11:37:00.938Z,23.10
2022-08-16T11:39:38.739Z,18.77
2022-08-16T11:42:29.628Z,22.63
2022-08-16T11:45:11.626Z,21.63
2022-08-16T11:48:06.598Z,19.05
2022-08-16T11:51:01.626Z,18.90
2022-08-16T11:53:48.631Z,22.65
2022-08-16T11:56:39.629Z,21.15
2022-08-16T11:59:29.129Z,22.35
2022-08-16T12:02:31.115Z,21.02
2022-08-16T12:05:27.634Z,21.90
2022-08-16T12:08:26.015Z,20.30
2022-08-16T12:11:13.651Z,20.38
2022-08-16T12:13:48.775Z,20.73
2022-08-16T12:16:36.632Z,22.25
2022-08-16T12:19:13.651Z,21.67
2022-08-16T12:22:00.663Z,20.50
2022-08-16T12:24:34.727Z,20.85
2022-08-16T12:27:21.631Z,19.05
2022-08-16T12:29:58.441Z,21.35
2022-08-16T12:32:45.648Z,19.90
2022-08-16T12:35:29.660Z,21.05
2022-08-16T12:38:40.960Z,21.33
2022-08-16T12:41:10.756Z,21.42
2022-08-16T12:44:01.002Z,21.58
2022-08-16T12:46:34.730Z,22.85
2022-08-16T12:49:22.675Z,21.40
2022-08-16T12:52:03.656Z,19.80
2022-08-16T12:54:57.668Z,20.60
2022-08-16T12:57:45.689Z,21.88
2022-08-16T13:00:34.831Z,21.00
2022-08-16T13:03:22.683Z,21.15
2022-08-16T13:06:02.647Z,22.05
2022-08-16T13:08:56.704Z,22.83
2022-08-16T13:11:52.214Z,20.30
2022-08-16T13:14:37.699Z,20.30
2022-08-16T13:17:36.674Z,21.95
2022-08-16T13:20:39.701Z,19.90
2022-08-16T13:23:27.681Z,20.73
2022-08-16T13:26:08.691Z,19.05
2022-08-16T13:29:02.725Z,20.08
2022-08-16T13:31:49.703Z,20.42
2022-08-16T13:34:29.715Z,17.02
2022-08-16T13:37:16.699Z,20.17
2022-08-16T13:39:51.920Z,20.40
2022-08-16T13:42:41.459Z,21.23
2022-08-16T13:45:19.439Z,19.73
2022-08-16T13:48:06.728Z,22.27
2022-08-16T13:50:49.134Z,21.38
2022-08-16T13:53:38.714Z,20.92
2022-08-16T13:56:22.210Z,21.63
2022-08-16T13:59:23.725Z,22.20
2022-08-16T14:02:24.777Z,22.30
2022-08-16T14:05:20.113Z,21.85
2022-08-16T14:08:08.717Z,21.70
2022-08-16T14:10:41.790Z,24.27
2022-08-16T14:13:28.720Z,24.25
2022-08-16T14:16:02.839Z,22.90
2022-08-16T14:18:49.747Z,22.00
2022-08-16T14:21:35.488Z,23.85
2022-08-16T14:24:30.299Z,25.33
2022-08-16T14:27:10.743Z,28.15
2022-08-16T14:30:07.724Z,22.70
2022-08-16T14:32:54.857Z,21.95
2022-08-16T14:35:48.181Z,20.55
2022-08-16T14:38:39.264Z,20.77
2022-08-16T14:41:19.767Z,23.83
2022-08-16T14:44:13.754Z,23.77
2022-08-16T14:47:07.771Z,23.75
2022-08-16T14:49:54.724Z,23.90
2022-08-16T14:52:54.032Z,22.15
2022-08-16T14:55:41.033Z,22.23
2022-08-16T14:58:28.335Z,24.25
2022-08-16T15:01:58.761Z,24.85
2022-08-16T15:04:40.212Z,22.75
2022-08-16T15:07:23.852Z,22.25
2022-08-16T15:10:24.166Z,21.20
2022-08-16T15:13:13.752Z,24.58
2022-08-16T15:15:56.230Z,23.92
2022-08-16T15:18:46.903Z,22.58
2022-08-16T15:21:19.823Z,22.25
2022-08-16T15:24:08.794Z,23.98
2022-08-16T15:26:49.840Z,23.88
2022-08-16T15:29:36.762Z,22.17
2022-08-16T15:32:26.719Z,20.90
2022-08-16T15:35:15.761Z,23.75
2022-08-16T15:38:01.332Z,23.38
2022-08-16T15:41:02.794Z,21.67
2022-08-16T15:43:49.777Z,21.00
2022-08-16T15:46:55.206Z,22.52
2022-08-16T15:49:46.764Z,22.17
2022-08-16T15:52:43.774Z,22.52
2022-08-16T15:55:38.843Z,20.02
2022-08-16T15:58:34.635Z,24.65
2022-08-16T16:01:26.801Z,23.48
2022-08-16T16:04:06.084Z,21.75
2022-08-16T16:06:56.785Z,18.52
2022-08-16T16:09:36.515Z,21.58
2022-08-16T16:12:51.689Z,21.95
2022-08-16T16:15:16.851Z,29.67
2022-08-16T16:18:09.168Z,21.85
2022-08-16T16:20:46.271Z,22.35
2022-08-16T16:23:53.994Z,20.90
2022-08-16T16:26:30.918Z,21.65
2022-08-16T16:29:18.828Z,21.33
2022-08-16T16:31:59.498Z,21.45
2022-08-16T16:34:48.806Z,23.55
2022-08-16T16:37:30.812Z,23.30
2022-08-16T16:40:32.554Z,20.77
2022-08-16T16:43:31.914Z,20.90
2022-08-16T16:46:41.027Z,19.85
2022-08-16T16:49:15.011Z,21.90
2022-08-16T16:52:00.001Z,23.13
2022-08-16T16:54:46.867Z,22.02
2022-08-16T16:57:42.291Z,22.00
2022-08-16T17:00:25.981Z,24.35
2022-08-16T17:03:17.287Z,23.25
2022-08-16T17:06:03.147Z,23.33
2022-08-16T17:09:02.843Z,25.45
2022-08-16T17:11:55.594Z,25.25
2022-08-16T17:14:33.071Z,24.48
2022-08-16T17:17:20.818Z,24.98
2022-08-16T17:19:55.174Z,23.48
2022-08-16T17:22:38.852Z,23.67
2022-08-16T17:25:19.909Z,23.42
2022-08-16T17:27:59.864Z,25.05
2022-08-16T17:30:44.936Z,23.25
2022-08-16T17:33:27.897Z,25.55
2022-08-16T17:36:35.912Z,23.02
2022-08-16T17:39:18.853Z,24.42
2022-08-16T17:41:58.845Z,24.38
2022-08-16T17:44:38.838Z,23.65
2022-08-16T17:47:32.916Z,24.10
2022-08-16T17:50:19.906Z,27.00
2022-08-16T17:53:07.881Z,24.23
2022-08-16T17:55:56.852Z,25.13
2022-08-16T17:58:30.955Z,24.15
2022-08-16T18:01:18.915Z,25.00
2022-08-16T18:04:06.404Z,23.35
2022-08-16T18:07:02.867Z,24.67
2022-08-16T18:09:56.867Z,24.13
2022-08-16T18:12:54.674Z,24.42
2022-08-16T18:15:44.866Z,26.38
2022-08-16T18:18:20.653Z,26.70
2022-08-16T18:21:26.878Z,26.23
2022-08-16T18:23:59.990Z,25.02
2022-08-16T18:26:46.876Z,24.90
2022-08-16T18:29:21.254Z,26.35
2022-08-16T18:32:10.887Z,28.90
2022-08-16T18:34:52.890Z,25.08
2022-08-16T18:37:48.080Z,26.25
2022-08-16T18:40:34.898Z,26.70
2022-08-16T18:43:14.099Z,28.77
2022-08-16T18:46:01.901Z,27.92
2022-08-16T18:48:35.002Z,27.02
2022-08-16T18:51:25.250Z,28.13
2022-08-16T18:54:06.895Z,28.67
2022-08-16T18:57:05.847Z,28.10
2022-08-16T18:59:54.932Z,28.27
2022-08-16T19:02:56.861Z,27.80
2022-08-16T19:05:58.900Z,27.50
2022-08-16T19:08:53.900Z,28.10
2022-08-16T19:11:47.914Z,27.02
2022-08-16T19:14:41.925Z,26.55
2022-08-16T19:17:28.927Z,28.17
2022-08-16T19:20:10.994Z,26.88
2022-08-16T19:23:10.169Z,27.20
2022-08-16T19:26:24.658Z,28.15
2022-08-16T19:29:08.262Z,27.98
2022-08-16T19:31:48.915Z,26.45
2022-08-16T19:34:22.091Z,26.23
2022-08-16T19:37:08.929Z,28.13
2022-08-16T19:39:42.081Z,28.08
2022-08-16T19:42:31.927Z,29.50
2022-08-16T19:45:06.002Z,29.17
2022-08-16T19:47:55.602Z,27.80
2022-08-16T19:50:36.224Z,30.30
2022-08-16T19:53:24.938Z,29.85
2022-08-16T19:55:57.994Z,28.23
2022-08-16T19:59:08.764Z,30.52
2022-08-16T20:01:42.358Z,27.17
2022-08-16T20:04:30.945Z,27.52
2022-08-16T20:07:04.005Z,26.02
2022-08-16T20:09:57.949Z,28.23
2022-08-16T20:13:01.936Z,28.88
2022-08-16T20:15:50.935Z,27.77
2022-08-16T20:18:25.778Z,27.48
2022-08-16T20:21:13.937Z,26.95
2022-08-16T20:24:01.305Z,26.52
2022-08-16T20:26:56.939Z,27.42
2022-08-16T20:29:36.962Z,26.67
2022-08-16T20:32:35.999Z,28.80
2022-08-16T20:35:16.030Z,28.80
2022-08-16T20:38:02.948Z,28.05
2022-08-16T20:40:36.166Z,28.30
2022-08-16T20:43:22.947Z,27.40
2022-08-16T20:46:02.968Z,28.98
2022-08-16T20:48:49.981Z,28.05
2022-08-16T20:51:29.967Z,28.23
2022-08-16T20:54:42.956Z,28.70
2022-08-16T20:57:29.972Z,27.70
2022-08-16T21:00:03.029Z,29.42
2022-08-16T21:02:50.123Z,29.95
2022-08-16T21:05:31.732Z,29.63
2022-08-16T21:08:50.055Z,29.05
2022-08-16T21:11:19.976Z,28.27
2022-08-16T21:14:20.006Z,27.45
2022-08-16T21:16:59.988Z,29.83
2022-08-16T21:19:41.083Z,28.15
2022-08-16T21:22:22.984Z,29.40
2022-08-16T21:25:03.072Z,32.70
2022-08-16T21:28:36.821Z,33.40
2022-08-16T21:30:43.990Z,32.28
2022-08-16T21:33:21.063Z,31.38
2022-08-16T21:36:07.998Z,30.15
2022-08-16T21:38:41.098Z,33.20
2022-08-16T21:41:27.993Z,31.95
2022-08-16T21:44:07.995Z,32.53
2022-08-16T21:46:55.006Z,31.58
2022-08-16T21:49:28.064Z,28.75
2022-08-16T21:52:26.414Z,29.40
2022-08-16T21:55:02.100Z,28.38
2022-08-16T21:57:49.005Z,29.38
2022-08-16T22:00:22.082Z,29.00
2022-08-16T22:03:11.015Z,28.65
2022-08-16T22:06:11.884Z,28.90
2022-08-16T22:08:55.999Z,29.60
2022-08-16T22:11:31.086Z,30.00
2022-08-16T22:14:18.017Z,29.42
2022-08-16T22:16:58.020Z,29.73
2022-08-16T22:19:45.012Z,29.42
2022-08-16T22:22:25.021Z,30.38
2022-08-16T22:25:23.018Z,29.92
2022-08-16T22:28:03.027Z,30.20
2022-08-16T22:30:58.009Z,32.75
2022-08-16T22:33:45.039Z,31.80
2022-08-16T22:36:28.240Z,31.23
2022-08-16T22:39:12.017Z,33.42
2022-08-16T22:41:52.035Z,30.75
2022-08-16T22:44:26.209Z,29.88
2022-08-16T22:47:13.046Z,30.50
2022-08-16T22:49:53.028Z,30.75
2022-08-16T22:52:56.394Z,31.05
2022-08-16T22:55:45.016Z,31.52
2022-08-16T22:58:19.212Z,28.45
2022-08-16T23:00:59.042Z,29.35
2022-08-16T23:03:39.124Z,29.42
2022-08-16T23:06:20.055Z,31.55
2022-08-16T23:09:00.126Z,28.90
2022-08-16T23:11:33.111Z,28.35
2022-08-16T23:14:20.032Z,27.98
2022-08-16T23:16:53.106Z,28.38
2022-08-16T23:19:40.047Z,30.42
2022-08-16T23:22:24.762Z,30.50
2022-08-16T23:25:20.056Z,29.20
2022-08-16T23:28:14.065Z,29.73
2022-08-16T23:31:09.062Z,29.98
2022-08-16T23:34:03.068Z,29.27
2022-08-16T23:36:50.042Z,30.30
2022-08-16T23:39:23.154Z,28.55
2022-08-16T23:42:49.619Z,29.08
2022-08-16T23:45:13.312Z,29.38
2022-08-16T23:48:02.068Z,28.35
2022-08-16T23:50:37.144Z,27.50
2022-08-16T23:53:38.061Z,29.23
2022-08-16T23:56:22.062Z,28.95
2022-08-16T23:59:16.072Z,27.50
